»·PEaware :: N626MT KTEX-KSAF

N626MT :: KTEX-KSAF

FLIGHT INFORMATION

Flight Status: Arrived
Operator: Privately registered:
United States
More flights under this callsign
Pilot: Dave M. (4986)
Aircraft: SOCATA TBM-900
(TBM9)
More flights by this aircraft type
Origin: KTEX Telluride Regl
United States
Destination: KSAF Santa Fe Mun
United States
More flights between these airports :: More routes between these airports
Route: ETL DRO
File this flight plan on PilotEdge
Remarks: RMK / SIMBRIEF
Altitude:
(Current/Filed)
25,000ft
Speed:
(Current/Filed)
316kts
Departed: 05-Mar-23 02:36 PM
Arrived: 05-Mar-23 03:28 PM
Distance/Time
Traveled:
165nm/0:51
Distance/Time
To Go:
Arrived

Flight Plot

Page will automatically refresh every two minutes.

Flight plan parsing failed; only flown route is shown


Map Options




Map Legend


Flown Route
Filed Route
Departure Airport
Arrival Airport
Navaid (VOR, NDB)
Fix

Horizontal Profiles

Position Reports

Time Latitude Longitude Heading Altitude Ground
Speed
05-Mar-23 14:12 37.954029 -107.902768 106 9058ft 0kts
05-Mar-23 14:14 37.954029 -107.902768 106 9058ft 0kts
05-Mar-23 14:15 37.954029 -107.902768 106 9058ft 0kts
05-Mar-23 14:16 37.954029 -107.902768 106 9058ft 0kts
05-Mar-23 14:16 37.954029 -107.902768 106 9058ft 0kts
05-Mar-23 14:17 37.954029 -107.902768 106 9058ft 0kts
05-Mar-23 14:19 37.954029 -107.902768 106 9058ft 0kts
05-Mar-23 14:20 37.954029 -107.902768 106 9058ft 0kts
05-Mar-23 14:20 37.954029 -107.902768 106 9058ft 0kts
05-Mar-23 14:21 37.954029 -107.902768 106 9058ft 0kts
05-Mar-23 14:22 37.954029 -107.902768 106 9058ft 0kts
05-Mar-23 14:24 37.954029 -107.902768 106 9058ft 0kts
05-Mar-23 14:24 37.954029 -107.902768 106 9058ft 0kts
05-Mar-23 14:25 37.954029 -107.902768 106 9058ft 0kts
05-Mar-23 14:26 37.954029 -107.902768 106 9058ft 0kts
05-Mar-23 14:27 37.954029 -107.902768 106 9058ft 0kts
05-Mar-23 14:28 37.954029 -107.902768 106 9058ft 0kts
05-Mar-23 14:29 37.954029 -107.902768 106 9058ft 0kts
05-Mar-23 14:30 37.954029 -107.902768 106 9058ft 0kts
05-Mar-23 14:31 37.953691 -107.902527 136 9058ft 4kts
05-Mar-23 14:32 37.952965 -107.899330 105 9058ft 11kts
05-Mar-23 14:33 37.952561 -107.897393 104 9058ft 3kts
05-Mar-23 14:34 37.951406 -107.897242 283 9058ft 5kts
05-Mar-23 14:35 37.953882 -107.908772 283 9172ft 111kts
05-Mar-23 14:36 37.963665 -107.946082 286 11162ft 118kts
05-Mar-23 14:37 37.974326 -107.993187 288 12858ft 147kts
05-Mar-23 14:38 37.986160 -108.044190 288 14870ft 160kts
05-Mar-23 14:39 37.999199 -108.098400 289 17032ft 171kts
05-Mar-23 14:40 38.015341 -108.162977 289 18105ft 212kts
05-Mar-23 14:41 38.016159 -108.233785 215 19134ft 235kts
05-Mar-23 14:42 37.954226 -108.208577 156 20085ft 250kts
05-Mar-23 14:43 37.890148 -108.171489 156 21096ft 257kts
05-Mar-23 14:44 37.824695 -108.133643 157 22417ft 261kts
05-Mar-23 14:45 37.758027 -108.095174 157 23548ft 267kts
05-Mar-23 14:46 37.689737 -108.055844 157 24555ft 271kts
05-Mar-23 14:47 37.617926 -108.014583 157 24989ft 303kts
05-Mar-23 14:48 37.539411 -107.969542 157 24984ft 318kts
05-Mar-23 14:49 37.462814 -107.925716 157 24995ft 323kts
05-Mar-23 14:50 37.392309 -107.885463 157 25001ft 324kts
05-Mar-23 14:51 37.310493 -107.838857 157 25000ft 322kts
05-Mar-23 14:52 37.229070 -107.792594 157 25001ft 321kts
05-Mar-23 14:53 37.148384 -107.745151 144 24981ft 323kts
05-Mar-23 14:54 37.081417 -107.669893 139 25002ft 324kts
05-Mar-23 14:55 37.013501 -107.594673 141 25004ft 327kts
05-Mar-23 14:56 36.945112 -107.519213 143 25005ft 328kts
05-Mar-23 14:57 36.877804 -107.445162 143 25006ft 328kts
05-Mar-23 14:58 36.809021 -107.369622 143 25010ft 328kts
05-Mar-23 14:59 36.740285 -107.294317 143 25004ft 327kts
05-Mar-23 15:00 36.671841 -107.219502 143 25007ft 327kts
05-Mar-23 15:01 36.603333 -107.144825 143 25007ft 327kts
05-Mar-23 15:02 36.534850 -107.070346 143 25007ft 327kts
05-Mar-23 15:03 36.466439 -106.996129 143 25010ft 327kts
05-Mar-23 15:04 36.397695 -106.921727 144 25022ft 327kts
05-Mar-23 15:05 36.326276 -106.844671 143 23871ft 353kts
05-Mar-23 15:06 36.251049 -106.763631 142 22388ft 357kts
05-Mar-23 15:07 36.176765 -106.683849 142 20882ft 343kts
05-Mar-23 15:08 36.105726 -106.607770 141 19386ft 334kts
05-Mar-23 15:09 36.036104 -106.533382 141 17896ft 328kts
05-Mar-23 15:10 36.000280 -106.434078 97 16390ft 329kts
05-Mar-23 15:11 35.983835 -106.323925 107 15030ft 318kts
05-Mar-23 15:12 35.958897 -106.224625 107 15023ft 293kts
05-Mar-23 15:13 35.934745 -106.128588 107 13617ft 285kts
05-Mar-23 15:14 35.912431 -106.040124 107 13014ft 251kts
05-Mar-23 15:15 35.928288 -105.975310 6 13035ft 226kts
05-Mar-23 15:16 35.990211 -105.965734 5 13025ft 224kts
05-Mar-23 15:17 36.026856 -105.999545 240 13028ft 214kts
05-Mar-23 15:18 35.978680 -106.023041 156 13047ft 222kts
05-Mar-23 15:19 35.919153 -106.012761 185 13016ft 221kts
05-Mar-23 15:20 35.863063 -106.018107 185 12015ft 206kts
05-Mar-23 15:21 35.805502 -106.023703 186 10461ft 209kts
05-Mar-23 15:22 35.747590 -106.029405 188 8876ft 204kts
05-Mar-23 15:23 35.698891 -106.043543 185 7771ft 150kts
05-Mar-23 15:24 35.665082 -106.045833 221 7407ft 103kts
05-Mar-23 15:25 35.642907 -106.066020 221 6768ft 97kts
05-Mar-23 15:26 35.622801 -106.083772 215 6351ft 52kts
05-Mar-23 15:27 35.619210 -106.085624 138 6351ft 0kts
05-Mar-23 15:28 35.619717 -106.084739 36 6351ft 6kts
05-Mar-23 15:29 35.620089 -106.083004 310 6351ft 3kts
05-Mar-23 15:30 35.620141 -106.083097 306 6351ft 0kts

Navigation Log

Ident Type
Flight plan parsing failed, navigation log unavailable